createdAt,value
2017-03-06T00:00:15.497Z,2.18
2017-03-06T00:01:13.911Z,2.15
2017-03-06T00:02:12.390Z,2.25
2017-03-06T00:03:10.895Z,2.20
2017-03-06T00:04:09.645Z,1.88
2017-03-06T00:05:08.127Z,2.48
2017-03-06T00:06:06.557Z,2.32
2017-03-06T00:07:05.391Z,1.92
2017-03-06T00:08:03.828Z,3.33
2017-03-06T00:09:02.255Z,1.85
2017-03-06T00:10:00.978Z,2.17
2017-03-06T00:10:59.385Z,2.60
2017-03-06T00:11:57.864Z,2.85
2017-03-06T00:12:56.366Z,2.07
2017-03-06T00:13:55.259Z,2.70
2017-03-06T00:14:54.158Z,2.23
2017-03-06T00:15:53.125Z,3.15
2017-03-06T00:16:51.582Z,2.18
2017-03-06T00:18:59.220Z,1.87
2017-03-06T00:19:57.753Z,2.23
2017-03-06T00:20:56.546Z,2.20
2017-03-06T00:21:55.026Z,2.23
2017-03-06T00:22:53.473Z,2.13
2017-03-06T00:23:51.938Z,1.90
2017-03-06T00:24:50.486Z,2.00
2017-03-06T00:25:48.946Z,1.83
2017-03-06T00:26:48.108Z,2.33
2017-03-06T00:27:46.580Z,2.60
2017-03-06T00:28:45.146Z,2.00
2017-03-06T00:29:43.709Z,1.70
2017-03-06T00:30:42.406Z,1.70
2017-03-06T00:31:40.940Z,1.90
2017-03-06T00:32:40.053Z,1.67
2017-03-06T00:33:38.775Z,1.90
2017-03-06T00:34:37.274Z,1.73
2017-03-06T00:35:35.745Z,2.00
2017-03-06T00:36:34.289Z,2.32
2017-03-06T00:37:32.771Z,1.80
2017-03-06T00:38:31.706Z,2.03
2017-03-06T00:39:30.234Z,2.32
2017-03-06T00:40:28.707Z,2.12
2017-03-06T00:41:27.537Z,1.98
2017-03-06T00:42:25.986Z,2.00
2017-03-06T00:43:24.438Z,1.98
2017-03-06T00:44:24.341Z,1.87
2017-03-06T00:45:23.283Z,1.53
2017-03-06T00:46:22.130Z,1.98
2017-03-06T00:47:20.945Z,2.53
2017-03-06T00:48:19.416Z,2.18
2017-03-06T00:49:17.838Z,1.90
2017-03-06T00:50:16.728Z,1.90
2017-03-06T00:51:15.191Z,1.92
2017-03-06T00:52:13.646Z,2.02
2017-03-06T00:53:12.219Z,2.18
2017-03-06T00:54:10.655Z,1.40
2017-03-06T00:55:09.422Z,1.88
2017-03-06T00:56:08.726Z,2.03
2017-03-06T00:57:08.030Z,1.83
2017-03-06T00:58:06.790Z,1.75
2017-03-06T00:59:05.528Z,1.67
2017-03-06T01:00:04.670Z,1.80
2017-03-06T01:01:03.882Z,1.93
2017-03-06T01:02:05.713Z,1.73
2017-03-06T01:03:04.185Z,2.23
2017-03-06T01:04:02.767Z,2.20
2017-03-06T01:05:01.987Z,1.90
2017-03-06T01:06:00.460Z,2.08
2017-03-06T01:06:58.958Z,2.53
2017-03-06T01:07:57.712Z,2.43
2017-03-06T01:08:56.139Z,2.17
2017-03-06T01:09:54.666Z,1.82
2017-03-06T01:10:53.122Z,2.05
2017-03-06T01:11:51.605Z,2.38
2017-03-06T01:12:50.175Z,2.20
2017-03-06T01:13:49.473Z,2.20
2017-03-06T01:14:48.363Z,2.57
2017-03-06T01:15:47.590Z,2.60
2017-03-06T01:16:46.250Z,2.30
2017-03-06T01:17:44.710Z,2.47
2017-03-06T01:18:43.236Z,2.78
2017-03-06T01:19:41.973Z,2.37
2017-03-06T01:20:40.435Z,2.35
2017-03-06T01:21:38.897Z,2.38
2017-03-06T01:22:37.769Z,2.25
2017-03-06T01:23:36.569Z,2.43
2017-03-06T01:24:34.980Z,2.60
2017-03-06T01:25:33.613Z,3.17
2017-03-06T01:26:32.354Z,2.70
2017-03-06T01:27:30.723Z,2.95
2017-03-06T01:28:29.087Z,2.58
2017-03-06T01:29:27.437Z,2.65
2017-03-06T01:30:25.936Z,2.92
2017-03-06T01:31:25.045Z,2.88
2017-03-06T01:32:23.785Z,2.68
2017-03-06T01:33:22.145Z,2.95
2017-03-06T01:34:20.490Z,2.90
2017-03-06T01:35:18.854Z,2.65
2017-03-06T01:36:17.236Z,2.93
2017-03-06T01:37:15.965Z,3.25
2017-03-06T01:38:14.746Z,3.48
2017-03-06T01:39:13.530Z,3.20
2017-03-06T01:40:11.897Z,3.02
2017-03-06T01:41:10.625Z,3.30
2017-03-06T01:42:09.001Z,3.33
2017-03-06T01:43:07.717Z,3.17
2017-03-06T01:44:06.502Z,2.83
2017-03-06T01:45:04.863Z,3.63
2017-03-06T01:46:03.689Z,3.28
2017-03-06T01:47:02.058Z,3.30
2017-03-06T01:48:00.450Z,3.28
2017-03-06T01:48:59.462Z,3.28
2017-03-06T01:49:57.847Z,3.42
2017-03-06T01:50:56.222Z,3.70
2017-03-06T01:51:54.586Z,3.82
2017-03-06T01:52:52.942Z,4.12
2017-03-06T01:53:51.307Z,3.68
2017-03-06T01:54:49.983Z,3.75
2017-03-06T01:55:48.755Z,4.08
2017-03-06T01:56:47.506Z,3.95
2017-03-06T01:57:45.865Z,4.65
2017-03-06T01:58:44.262Z,3.78
2017-03-06T01:59:43.011Z,4.83
2017-03-06T02:00:41.663Z,4.07
2017-03-06T02:01:40.041Z,4.90
2017-03-06T02:02:38.418Z,4.97
2017-03-06T02:03:36.818Z,3.83
2017-03-06T02:04:35.209Z,4.13
2017-03-06T02:05:33.597Z,4.10
2017-03-06T02:06:32.346Z,3.87
2017-03-06T02:07:30.737Z,4.25
2017-03-06T02:08:29.129Z,3.60
2017-03-06T02:09:27.518Z,3.30
2017-03-06T02:10:25.928Z,3.87
2017-03-06T02:11:24.298Z,3.43
2017-03-06T02:12:22.962Z,4.30
2017-03-06T02:13:21.334Z,3.72
2017-03-06T02:14:19.734Z,3.72
2017-03-06T02:15:18.144Z,3.90
2017-03-06T02:16:16.512Z,3.80
2017-03-06T02:17:14.897Z,4.70
2017-03-06T02:18:13.690Z,3.82
2017-03-06T02:19:12.051Z,3.47
2017-03-06T02:20:10.426Z,3.57
2017-03-06T02:21:09.214Z,3.32
2017-03-06T02:22:07.590Z,2.93
2017-03-06T02:23:06.110Z,3.35
2017-03-06T02:24:04.814Z,2.90
2017-03-06T02:25:03.586Z,3.30
2017-03-06T02:26:02.375Z,3.42
2017-03-06T02:27:00.725Z,3.58
2017-03-06T02:27:59.459Z,2.75
2017-03-06T02:28:57.809Z,3.18
2017-03-06T02:29:56.564Z,3.27
2017-03-06T02:30:55.056Z,3.90
2017-03-06T02:31:53.506Z,2.75
2017-03-06T02:32:51.914Z,3.05
2017-03-06T02:33:50.303Z,3.00
2017-03-06T02:34:48.705Z,3.47
2017-03-06T02:35:47.749Z,2.80
2017-03-06T02:36:46.195Z,2.80
2017-03-06T02:37:44.639Z,3.12
2017-03-06T02:38:43.086Z,2.93
2017-03-06T02:39:41.435Z,2.97
2017-03-06T02:40:39.847Z,2.50
2017-03-06T02:41:38.664Z,3.00
2017-03-06T02:42:37.049Z,3.33
2017-03-06T02:43:35.407Z,3.13
2017-03-06T02:44:33.800Z,3.17
2017-03-06T02:45:32.437Z,3.10
2017-03-06T02:46:30.830Z,2.55
2017-03-06T02:47:29.545Z,2.53
2017-03-06T02:48:28.362Z,2.73
2017-03-06T02:49:26.746Z,3.40
2017-03-06T02:50:25.122Z,3.08
2017-03-06T02:51:23.494Z,3.53
2017-03-06T02:52:21.862Z,3.13
2017-03-06T02:53:20.572Z,3.70
2017-03-06T02:54:19.334Z,3.20
2017-03-06T02:55:17.777Z,3.12
2017-03-06T02:56:16.202Z,3.50
2017-03-06T02:57:14.561Z,3.47
2017-03-06T02:58:12.931Z,3.33
2017-03-06T02:59:11.598Z,3.75
2017-03-06T03:00:10.399Z,2.78
2017-03-06T03:01:08.770Z,3.10
2017-03-06T03:02:08.521Z,3.08
2017-03-06T03:03:06.951Z,3.35
2017-03-06T03:04:05.386Z,2.83
2017-03-06T03:05:04.434Z,3.28
2017-03-06T03:06:02.842Z,3.50
2017-03-06T03:07:01.641Z,3.97
2017-03-06T03:08:00.086Z,3.87
2017-03-06T03:08:59.389Z,3.68
2017-03-06T03:09:57.801Z,2.93
2017-03-06T03:10:56.489Z,3.25
2017-03-06T03:11:55.255Z,4.68
2017-03-06T03:12:53.662Z,3.28
2017-03-06T03:13:52.039Z,3.05
2017-03-06T03:14:50.411Z,3.43
2017-03-06T03:15:48.782Z,3.22
2017-03-06T03:16:47.470Z,3.25
2017-03-06T03:17:45.850Z,3.82
2017-03-06T03:18:44.227Z,3.95
2017-03-06T03:19:42.593Z,3.68
2017-03-06T03:20:41.032Z,4.33
2017-03-06T03:21:39.389Z,4.07
2017-03-06T03:22:38.064Z,4.37
2017-03-06T03:23:36.434Z,4.55
2017-03-06T03:24:35.210Z,4.78
2017-03-06T03:25:33.623Z,4.90
2017-03-06T03:26:32.041Z,5.03
2017-03-06T03:27:30.405Z,5.33
2017-03-06T03:28:29.099Z,6.07
2017-03-06T03:29:27.463Z,5.90
2017-03-06T03:30:25.900Z,6.50
2017-03-06T03:31:24.717Z,6.60
2017-03-06T03:32:23.150Z,7.13
2017-03-06T03:33:21.510Z,6.80
2017-03-06T03:34:20.155Z,5.95
2017-03-06T03:35:18.580Z,7.35
2017-03-06T03:36:17.306Z,5.13
2017-03-06T03:37:15.984Z,6.43
2017-03-06T03:38:14.409Z,7.80
2017-03-06T03:39:12.807Z,6.42
2017-03-06T03:40:11.571Z,6.60
2017-03-06T03:41:10.018Z,7.33
2017-03-06T03:42:08.574Z,7.12
2017-03-06T03:43:07.013Z,6.62
2017-03-06T03:44:05.489Z,7.23
2017-03-06T03:45:03.977Z,7.72
2017-03-06T03:46:02.702Z,7.53
2017-03-06T03:47:01.107Z,6.47
2017-03-06T03:47:59.508Z,7.70
2017-03-06T03:48:57.924Z,6.95
2017-03-06T03:49:56.328Z,5.23
2017-03-06T03:50:54.818Z,5.48
2017-03-06T03:51:53.551Z,6.43
2017-03-06T03:52:51.974Z,6.65
2017-03-06T03:53:50.780Z,6.72
2017-03-06T03:54:49.193Z,6.70
2017-03-06T03:55:47.681Z,6.15
2017-03-06T03:56:46.131Z,6.98
2017-03-06T03:57:44.839Z,7.10
2017-03-06T03:58:43.791Z,5.82
2017-03-06T03:59:42.227Z,5.40
2017-03-06T04:00:41.311Z,5.08
2017-03-06T04:01:39.783Z,5.90
2017-03-06T04:02:38.615Z,5.60
2017-03-06T04:03:37.841Z,4.52
2017-03-06T04:04:36.286Z,6.08
2017-03-06T04:05:35.063Z,6.20
2017-03-06T04:06:33.879Z,4.73
2017-03-06T04:07:32.350Z,6.48
2017-03-06T04:08:30.790Z,4.47
2017-03-06T04:09:29.700Z,5.83
2017-03-06T04:10:28.147Z,5.18
2017-03-06T04:11:26.692Z,4.60
2017-03-06T04:12:25.111Z,5.28
2017-03-06T04:13:23.543Z,4.85
2017-03-06T04:14:21.970Z,3.67
2017-03-06T04:15:20.713Z,4.42
2017-03-06T04:16:19.127Z,4.52
2017-03-06T04:17:17.525Z,4.35
2017-03-06T04:18:16.332Z,4.52
2017-03-06T04:19:14.796Z,4.05
2017-03-06T04:20:13.210Z,4.82
2017-03-06T04:21:11.956Z,3.33
2017-03-06T04:22:10.448Z,3.32
2017-03-06T04:23:08.879Z,4.07
2017-03-06T04:24:08.079Z,3.67
2017-03-06T04:25:06.512Z,4.27
2017-03-06T04:26:05.335Z,3.40
2017-03-06T04:27:04.099Z,4.33
2017-03-06T04:28:02.504Z,3.68
2017-03-06T04:29:00.920Z,3.63
2017-03-06T04:29:59.344Z,3.68
2017-03-06T04:30:57.879Z,3.42
2017-03-06T04:31:56.275Z,2.83
2017-03-06T04:32:55.126Z,4.50
2017-03-06T04:33:53.564Z,3.48
2017-03-06T04:34:52.387Z,3.50
2017-03-06T04:35:50.891Z,3.58
2017-03-06T04:36:49.288Z,3.32
2017-03-06T04:37:47.835Z,3.62
2017-03-06T04:38:46.566Z,2.95
2017-03-06T04:39:44.959Z,4.62
2017-03-06T04:40:43.355Z,4.03
2017-03-06T04:41:41.758Z,3.55
2017-03-06T04:42:40.178Z,4.40
2017-03-06T04:43:38.615Z,3.60
2017-03-06T04:44:37.344Z,4.93
2017-03-06T04:45:35.731Z,4.10
2017-03-06T04:46:34.528Z,4.22
2017-03-06T04:47:32.935Z,4.12
2017-03-06T04:48:31.411Z,3.35
2017-03-06T04:49:29.823Z,4.78
2017-03-06T04:50:28.519Z,3.87
2017-03-06T04:51:27.023Z,3.85
2017-03-06T04:52:25.554Z,3.32
2017-03-06T04:53:23.968Z,3.72
2017-03-06T04:54:22.363Z,3.90
2017-03-06T04:55:20.779Z,4.12
2017-03-06T04:56:19.548Z,4.42
2017-03-06T04:57:18.575Z,2.98
2017-03-06T04:58:17.131Z,3.55
2017-03-06T04:59:15.653Z,2.77
2017-03-06T05:00:14.579Z,3.15
2017-03-06T05:01:13.143Z,3.12
2017-03-06T05:02:11.792Z,3.77
2017-03-06T05:03:10.182Z,4.33
2017-03-06T05:04:08.599Z,3.25
2017-03-06T05:05:07.464Z,3.78
2017-03-06T05:06:05.875Z,3.87
2017-03-06T05:07:04.327Z,3.95
2017-03-06T05:08:03.077Z,3.82
2017-03-06T05:09:01.483Z,3.33
2017-03-06T05:09:59.891Z,3.68
2017-03-06T05:10:58.435Z,3.95
2017-03-06T05:11:57.274Z,4.48
2017-03-06T05:12:55.724Z,3.52
2017-03-06T05:13:54.478Z,3.05
2017-03-06T05:14:52.854Z,4.05
2017-03-06T05:15:51.335Z,3.80
2017-03-06T05:16:49.760Z,3.95
2017-03-06T05:17:48.556Z,3.90
2017-03-06T05:18:47.374Z,4.00
2017-03-06T05:19:46.079Z,4.30
2017-03-06T05:20:44.511Z,4.20
2017-03-06T05:21:42.955Z,3.83
2017-03-06T05:22:41.369Z,4.32
2017-03-06T05:23:39.818Z,3.92
2017-03-06T05:24:38.223Z,3.63
2017-03-06T05:25:36.945Z,3.68
2017-03-06T05:26:35.359Z,4.08
2017-03-06T05:27:34.883Z,3.77
2017-03-06T05:28:33.309Z,4.22
2017-03-06T05:29:31.719Z,4.03
2017-03-06T05:30:30.546Z,5.07
2017-03-06T05:31:30.427Z,3.80
2017-03-06T05:32:28.933Z,5.30
2017-03-06T05:33:27.327Z,5.20
2017-03-06T05:34:26.143Z,5.17
2017-03-06T05:35:24.554Z,3.63
2017-03-06T05:36:22.950Z,3.78
2017-03-06T05:37:22.275Z,4.27
2017-03-06T05:38:20.705Z,4.07
2017-03-06T05:39:19.155Z,5.65
2017-03-06T05:40:18.226Z,4.07
2017-03-06T05:41:16.576Z,3.73
2017-03-06T05:42:14.967Z,4.75
2017-03-06T05:43:13.705Z,4.22
2017-03-06T05:44:12.558Z,4.22
2017-03-06T05:45:11.381Z,4.02
2017-03-06T05:46:09.734Z,5.32
2017-03-06T05:47:08.121Z,4.23
2017-03-06T05:48:06.485Z,4.73
2017-03-06T05:49:05.500Z,9.00
2017-03-06T05:50:03.921Z,3.90
2017-03-06T05:51:02.698Z,3.80
2017-03-06T05:52:01.462Z,5.00
2017-03-06T05:53:00.230Z,4.05
2017-03-06T05:53:58.601Z,4.03
2017-03-06T05:54:57.727Z,5.32
2017-03-06T05:55:56.461Z,4.98
2017-03-06T05:56:55.250Z,4.78
2017-03-06T05:57:54.023Z,3.70
2017-03-06T05:58:52.923Z,5.00
2017-03-06T05:59:51.314Z,4.60
2017-03-06T06:00:50.044Z,4.73
2017-03-06T06:01:48.844Z,4.45
2017-03-06T06:02:47.609Z,4.72
2017-03-06T06:03:46.038Z,5.22
2017-03-06T06:04:44.418Z,4.67
2017-03-06T06:05:42.815Z,3.48
2017-03-06T06:06:41.860Z,4.10
2017-03-06T06:07:40.225Z,4.22
2017-03-06T06:08:38.578Z,3.38
2017-03-06T06:09:36.960Z,17.20
2017-03-06T06:10:35.319Z,4.70
2017-03-06T06:11:33.872Z,4.90
2017-03-06T06:12:32.535Z,4.92
2017-03-06T06:13:31.295Z,6.05
2017-03-06T06:14:30.166Z,5.45
2017-03-06T06:15:28.547Z,6.07
2017-03-06T06:16:27.954Z,6.43
2017-03-06T06:17:26.336Z,5.60
2017-03-06T06:18:25.102Z,4.23
2017-03-06T06:19:23.494Z,4.28
2017-03-06T06:20:21.889Z,5.13
2017-03-06T06:21:20.266Z,8.82
2017-03-06T06:22:18.994Z,5.27
2017-03-06T06:23:17.735Z,5.30
2017-03-06T06:24:16.442Z,6.70
2017-03-06T06:25:16.022Z,5.07
2017-03-06T06:26:14.406Z,6.22
2017-03-06T06:27:12.816Z,5.50
2017-03-06T06:28:11.247Z,5.93
2017-03-06T06:29:09.641Z,5.47
2017-03-06T06:30:08.393Z,6.47
2017-03-06T06:31:06.830Z,5.63
2017-03-06T06:32:05.238Z,5.50
2017-03-06T06:33:03.606Z,5.52
2017-03-06T06:34:02.432Z,7.27
2017-03-06T06:35:00.776Z,5.43
2017-03-06T06:35:59.458Z,4.92
2017-03-06T06:36:57.802Z,4.63
2017-03-06T06:37:56.229Z,10.60
2017-03-06T06:38:54.610Z,15.28
2017-03-06T06:39:53.374Z,7.50
2017-03-06T06:40:51.751Z,6.43
2017-03-06T06:41:50.446Z,5.70
2017-03-06T06:42:48.828Z,6.28
2017-03-06T06:43:47.218Z,6.48
2017-03-06T06:44:49.369Z,5.60
2017-03-06T06:45:47.793Z,5.78
2017-03-06T06:46:46.158Z,5.47
2017-03-06T06:47:45.274Z,6.57
2017-03-06T06:48:43.658Z,5.18
2017-03-06T06:49:42.026Z,6.30
2017-03-06T06:50:40.454Z,6.27
2017-03-06T06:51:38.848Z,4.30
2017-03-06T06:52:37.218Z,4.60
2017-03-06T06:53:35.910Z,5.48
2017-03-06T06:54:34.277Z,7.93
2017-03-06T06:55:32.630Z,6.97
2017-03-06T06:56:30.988Z,4.97
2017-03-06T06:57:29.382Z,4.47
2017-03-06T06:58:27.772Z,5.15
2017-03-06T06:59:26.497Z,6.18
2017-03-06T07:00:24.904Z,5.37
2017-03-06T07:01:23.261Z,5.42
2017-03-06T07:02:21.627Z,6.12
2017-03-06T07:03:20.098Z,5.85
2017-03-06T07:04:18.823Z,5.10
2017-03-06T07:05:17.453Z,5.45
2017-03-06T07:06:15.955Z,5.03
2017-03-06T07:07:14.353Z,6.42
2017-03-06T07:08:12.744Z,5.35
2017-03-06T07:09:11.158Z,5.87
2017-03-06T07:10:09.583Z,6.68
2017-03-06T07:11:08.867Z,6.33
2017-03-06T07:12:07.317Z,5.83
2017-03-06T07:13:06.169Z,5.88
2017-03-06T07:14:04.658Z,5.98
2017-03-06T07:15:03.026Z,5.77
2017-03-06T07:16:01.843Z,5.92
2017-03-06T07:17:00.610Z,5.53
2017-03-06T07:17:58.970Z,5.43
2017-03-06T07:18:57.318Z,9.38
2017-03-06T07:19:55.697Z,5.58
2017-03-06T07:20:54.066Z,5.78
2017-03-06T07:21:52.814Z,4.58
2017-03-06T07:22:51.537Z,6.08
2017-03-06T07:23:50.003Z,6.20
2017-03-06T07:24:48.427Z,6.25
2017-03-06T07:25:47.464Z,7.47
2017-03-06T07:26:46.562Z,7.98
2017-03-06T07:27:44.917Z,6.07
2017-03-06T07:28:43.692Z,4.85
2017-03-06T07:29:42.471Z,6.87
2017-03-06T07:30:40.834Z,7.05
2017-03-06T07:31:40.548Z,6.15
2017-03-06T07:32:38.905Z,6.15
2017-03-06T07:33:37.401Z,6.10
2017-03-06T07:34:36.155Z,6.35
2017-03-06T07:35:34.771Z,6.67
2017-03-06T07:36:33.155Z,6.48
2017-03-06T07:37:31.579Z,7.55
2017-03-06T07:38:29.962Z,7.40
2017-03-06T07:39:28.423Z,7.03
2017-03-06T07:40:27.181Z,6.57
2017-03-06T07:41:26.027Z,6.08
2017-03-06T07:42:24.962Z,7.00
2017-03-06T07:43:23.454Z,6.23
2017-03-06T07:44:26.907Z,7.05
2017-03-06T07:45:26.084Z,7.13
2017-03-06T07:46:24.869Z,5.15
2017-03-06T07:47:23.676Z,6.00
2017-03-06T07:48:22.094Z,6.53
2017-03-06T07:49:20.511Z,5.70
2017-03-06T07:50:18.900Z,5.63
2017-03-06T07:51:17.309Z,5.87
2017-03-06T07:52:15.998Z,5.73
2017-03-06T07:53:14.390Z,6.60
2017-03-06T07:54:21.558Z,6.32
2017-03-06T07:55:21.111Z,5.75
2017-03-06T07:56:22.843Z,6.13
2017-03-06T07:57:29.708Z,5.37
2017-03-06T07:58:28.114Z,6.43
2017-03-06T07:59:26.658Z,5.75
2017-03-06T08:00:25.076Z,5.53
2017-03-06T08:01:23.511Z,5.87
2017-03-06T08:02:22.535Z,6.53
2017-03-06T08:03:21.198Z,6.33
2017-03-06T08:04:19.607Z,5.57
2017-03-06T08:05:18.047Z,6.35
2017-03-06T08:06:16.434Z,6.25
2017-03-06T08:07:14.895Z,4.22
2017-03-06T08:08:13.251Z,5.78
2017-03-06T08:09:11.933Z,5.95
2017-03-06T08:10:10.394Z,6.83
2017-03-06T08:11:08.810Z,5.30
2017-03-06T08:12:07.222Z,5.50
2017-03-06T08:13:05.649Z,5.80
2017-03-06T08:14:04.049Z,5.97
2017-03-06T08:15:03.154Z,5.13
2017-03-06T08:16:01.532Z,4.93
2017-03-06T08:17:00.198Z,6.27
2017-03-06T08:17:58.619Z,4.90
2017-03-06T08:18:57.016Z,4.25
2017-03-06T08:19:55.450Z,4.65
2017-03-06T08:20:54.189Z,4.57
2017-03-06T08:21:52.573Z,5.17
2017-03-06T08:22:50.976Z,4.20
2017-03-06T08:23:49.342Z,4.25
2017-03-06T08:24:47.730Z,3.98
2017-03-06T08:25:46.150Z,4.60
2017-03-06T08:26:44.920Z,4.18
2017-03-06T08:27:43.335Z,4.77
2017-03-06T08:28:41.747Z,6.12
2017-03-06T08:29:40.310Z,4.25
2017-03-06T08:30:38.802Z,4.33
2017-03-06T08:31:37.200Z,5.17
2017-03-06T08:32:35.940Z,4.48
2017-03-06T08:33:38.835Z,3.63
2017-03-06T08:34:37.242Z,4.92
2017-03-06T08:35:35.655Z,4.10
2017-03-06T08:36:34.091Z,4.68
2017-03-06T08:37:32.491Z,5.52
2017-03-06T08:38:31.296Z,3.82
2017-03-06T08:39:29.699Z,4.23
2017-03-06T08:40:28.084Z,3.75
2017-03-06T08:41:26.923Z,3.87
2017-03-06T08:42:25.322Z,4.10
2017-03-06T08:43:23.699Z,4.98
2017-03-06T08:44:22.813Z,3.48
2017-03-06T08:45:21.225Z,4.30
2017-03-06T08:46:19.653Z,4.60
2017-03-06T08:47:18.820Z,4.13
2017-03-06T08:48:17.365Z,4.67
2017-03-06T08:49:16.211Z,4.47
2017-03-06T08:50:14.954Z,4.32
2017-03-06T08:51:14.515Z,4.22
2017-03-06T08:52:24.364Z,3.32
2017-03-06T08:53:23.008Z,4.07
2017-03-06T08:54:21.370Z,3.77
2017-03-06T08:55:20.115Z,4.62
2017-03-06T08:56:18.554Z,4.45
2017-03-06T08:57:17.025Z,3.60
2017-03-06T08:58:15.381Z,4.03
2017-03-06T08:59:13.793Z,3.72
2017-03-06T09:00:12.575Z,3.10
2017-03-06T09:01:11.239Z,3.48
2017-03-06T09:02:09.653Z,3.62
2017-03-06T09:03:08.046Z,4.72
2017-03-06T09:04:06.556Z,3.42
2017-03-06T09:05:05.040Z,4.35
2017-03-06T09:06:03.426Z,4.45
2017-03-06T09:07:02.276Z,3.73
2017-03-06T09:08:00.660Z,2.93
2017-03-06T09:08:59.051Z,3.17
2017-03-06T09:09:57.434Z,4.53
2017-03-06T09:10:56.049Z,3.93
2017-03-06T09:11:54.611Z,3.17
2017-03-06T09:12:53.341Z,3.47
2017-03-06T09:13:51.826Z,3.83
2017-03-06T09:14:50.247Z,4.03
2017-03-06T09:15:48.649Z,3.42
2017-03-06T09:16:47.042Z,3.63
2017-03-06T09:17:45.450Z,3.20
2017-03-06T09:18:44.133Z,3.20
2017-03-06T09:19:42.534Z,3.70
2017-03-06T09:20:40.915Z,4.03
2017-03-06T09:21:39.337Z,3.52
2017-03-06T09:22:37.726Z,3.78
2017-03-06T09:23:36.116Z,3.77
2017-03-06T09:24:34.846Z,4.40
2017-03-06T09:25:33.358Z,3.03
2017-03-06T09:26:33.251Z,4.03
2017-03-06T09:27:31.641Z,3.60
2017-03-06T09:28:32.942Z,4.23
2017-03-06T09:29:31.824Z,3.32
2017-03-06T09:30:30.588Z,3.02
2017-03-06T09:31:28.993Z,3.23
2017-03-06T09:32:27.842Z,5.22
2017-03-06T09:33:26.447Z,3.08
2017-03-06T09:34:24.883Z,2.75
2017-03-06T09:35:24.330Z,2.48
2017-03-06T09:36:23.046Z,3.98
2017-03-06T09:37:21.448Z,3.43
2017-03-06T09:38:19.834Z,2.65
2017-03-06T09:39:18.263Z,2.52
2017-03-06T09:40:17.115Z,1.70
2017-03-06T09:41:15.520Z,2.43
2017-03-06T09:42:14.288Z,2.42
2017-03-06T09:43:12.710Z,2.48
2017-03-06T09:44:11.334Z,3.35
2017-03-06T09:45:09.738Z,2.85
2017-03-06T09:46:08.127Z,2.90
2017-03-06T09:47:06.597Z,2.23
2017-03-06T09:48:05.923Z,3.77
2017-03-06T09:49:04.720Z,2.48
2017-03-06T09:50:03.268Z,1.88
2017-03-06T09:51:01.730Z,3.10
2017-03-06T09:52:00.141Z,2.82
2017-03-06T09:52:58.734Z,2.68
2017-03-06T09:53:57.462Z,2.08
2017-03-06T09:54:56.246Z,2.52
2017-03-06T09:55:54.641Z,2.43
2017-03-06T09:56:53.047Z,2.58
2017-03-06T09:57:51.458Z,2.67
2017-03-06T09:58:49.863Z,2.57
2017-03-06T09:59:48.595Z,2.62
2017-03-06T10:00:47.014Z,3.05
2017-03-06T10:01:45.409Z,2.35
2017-03-06T10:02:45.114Z,2.35
2017-03-06T10:03:43.499Z,2.60
2017-03-06T10:04:41.941Z,2.48
2017-03-06T10:05:40.647Z,2.58
2017-03-06T10:06:39.085Z,2.87
2017-03-06T10:07:37.490Z,2.60
2017-03-06T10:08:35.867Z,2.20
2017-03-06T10:09:34.438Z,3.15
2017-03-06T10:10:32.943Z,1.78
2017-03-06T10:11:31.680Z,3.22
2017-03-06T10:12:30.111Z,4.10
2017-03-06T10:13:28.933Z,2.93
2017-03-06T10:14:27.468Z,2.98
2017-03-06T10:15:26.275Z,2.85
2017-03-06T10:16:24.672Z,2.38
2017-03-06T10:17:23.426Z,3.18
2017-03-06T10:18:21.956Z,3.33
2017-03-06T10:19:20.439Z,3.02
2017-03-06T10:20:18.863Z,4.22
2017-03-06T10:21:17.239Z,3.40
2017-03-06T10:22:15.674Z,2.95
2017-03-06T10:23:14.450Z,3.57
2017-03-06T10:24:12.820Z,3.88
2017-03-06T10:25:11.223Z,2.80
2017-03-06T10:26:09.624Z,2.92
2017-03-06T10:27:07.990Z,3.50
2017-03-06T10:28:06.786Z,3.32
2017-03-06T10:29:05.886Z,3.72
2017-03-06T10:30:04.672Z,3.90
2017-03-06T10:31:03.554Z,3.38
2017-03-06T10:32:02.290Z,2.83
2017-03-06T10:33:01.686Z,3.80
2017-03-06T10:34:00.089Z,3.33
2017-03-06T10:34:58.862Z,2.83
2017-03-06T10:35:57.682Z,4.40
2017-03-06T10:36:58.057Z,3.38
2017-03-06T10:37:56.505Z,3.72
2017-03-06T10:38:55.133Z,2.20
2017-03-06T10:39:54.224Z,2.38
2017-03-06T10:40:52.642Z,2.45
2017-03-06T10:41:54.024Z,2.45
2017-03-06T10:42:52.403Z,2.80
2017-03-06T10:43:50.796Z,2.65
2017-03-06T10:44:49.206Z,2.38
2017-03-06T10:45:47.875Z,2.37
2017-03-06T10:46:46.270Z,2.37
2017-03-06T10:47:44.727Z,2.25
2017-03-06T10:48:43.167Z,2.60
2017-03-06T10:49:41.623Z,2.18
2017-03-06T10:50:40.964Z,2.27
2017-03-06T10:51:39.731Z,1.98
2017-03-06T10:52:38.559Z,2.08
2017-03-06T10:53:36.913Z,2.47
2017-03-06T10:54:35.323Z,2.83
2017-03-06T10:55:34.102Z,3.20
2017-03-06T10:56:32.886Z,3.15
2017-03-06T10:57:31.569Z,2.40
2017-03-06T10:58:31.146Z,3.10
2017-03-06T10:59:29.863Z,2.45
2017-03-06T11:00:28.392Z,2.60
2017-03-06T11:01:26.850Z,2.38
2017-03-06T11:02:25.229Z,4.03
2017-03-06T11:03:23.943Z,2.38
2017-03-06T11:04:22.378Z,2.72
2017-03-06T11:05:21.173Z,1.68
2017-03-06T11:06:19.564Z,3.02
2017-03-06T11:07:17.955Z,2.60
2017-03-06T11:08:18.315Z,2.88
2017-03-06T11:09:17.423Z,2.90
2017-03-06T11:10:15.827Z,2.45
2017-03-06T11:11:14.226Z,2.32
2017-03-06T11:12:14.340Z,2.12
2017-03-06T11:13:12.722Z,2.10
2017-03-06T11:14:11.554Z,2.72
2017-03-06T11:15:10.293Z,4.90
2017-03-06T11:16:08.802Z,2.43
2017-03-06T11:17:07.193Z,2.68
2017-03-06T11:18:05.624Z,2.65
2017-03-06T11:19:04.037Z,2.58
2017-03-06T11:20:02.422Z,2.73
2017-03-06T11:21:01.087Z,2.37
2017-03-06T11:21:59.466Z,2.78
2017-03-06T11:22:57.839Z,2.62
2017-03-06T11:23:56.641Z,2.53
2017-03-06T11:24:55.904Z,3.35
2017-03-06T11:25:54.335Z,3.07
2017-03-06T11:26:53.018Z,3.18
2017-03-06T11:27:51.613Z,3.83
2017-03-06T11:28:53.155Z,2.60
2017-03-06T11:29:51.916Z,1.98
2017-03-06T11:30:50.797Z,3.00
2017-03-06T11:31:49.250Z,2.45
2017-03-06T11:32:48.450Z,2.60
2017-03-06T11:33:47.279Z,2.55
2017-03-06T11:34:45.703Z,2.77
2017-03-06T11:35:44.173Z,2.20
2017-03-06T11:36:42.706Z,2.50
2017-03-06T11:37:41.124Z,1.47
2017-03-06T11:38:40.774Z,1.18
2017-03-06T11:39:39.353Z,1.07
2017-03-06T11:40:37.840Z,1.45
2017-03-06T11:41:36.283Z,1.45
2017-03-06T11:42:35.347Z,1.20
2017-03-06T11:43:34.138Z,1.38
2017-03-06T11:44:33.215Z,1.25
2017-03-06T11:45:32.094Z,1.45
2017-03-06T11:46:30.513Z,1.33
2017-03-06T11:47:29.894Z,1.88
2017-03-06T11:48:29.212Z,1.38
2017-03-06T11:49:27.923Z,0.95
2017-03-06T11:50:27.106Z,1.12
2017-03-06T11:51:25.895Z,1.25
2017-03-06T11:52:25.351Z,1.98
2017-03-06T11:53:24.016Z,1.00
2017-03-06T11:54:22.429Z,1.75
2017-03-06T11:55:20.822Z,1.55
2017-03-06T11:56:21.149Z,1.53
2017-03-06T11:57:20.080Z,1.68
2017-03-06T11:58:18.458Z,1.90
2017-03-06T11:59:17.256Z,1.57
2017-03-06T12:00:15.821Z,1.60
2017-03-06T12:01:14.250Z,1.58
2017-03-06T12:02:12.960Z,1.63
2017-03-06T12:03:11.488Z,1.93
2017-03-06T12:04:10.455Z,1.93
2017-03-06T12:05:08.894Z,1.45
2017-03-06T12:06:11.934Z,1.25
2017-03-06T12:07:10.491Z,1.65
2017-03-06T12:08:09.207Z,1.82
2017-03-06T12:09:07.728Z,2.03
2017-03-06T12:10:06.148Z,2.10
2017-03-06T12:11:04.529Z,1.40
2017-03-06T12:12:03.875Z,1.55
2017-03-06T12:13:02.381Z,1.43
2017-03-06T12:14:01.159Z,2.13
2017-03-06T12:14:59.557Z,2.05
2017-03-06T12:15:58.010Z,1.62
2017-03-06T12:16:57.209Z,2.00
2017-03-06T12:17:55.565Z,1.58
2017-03-06T12:18:53.970Z,1.53
2017-03-06T12:19:54.337Z,1.68
2017-03-06T12:20:52.756Z,1.93
2017-03-06T12:21:51.138Z,1.20
2017-03-06T12:22:49.776Z,1.67
2017-03-06T12:23:48.325Z,1.90
2017-03-06T12:24:46.713Z,2.30
2017-03-06T12:25:45.375Z,2.97
2017-03-06T12:26:43.753Z,2.00
2017-03-06T12:27:42.229Z,1.48
2017-03-06T12:28:40.644Z,1.65
2017-03-06T12:29:39.020Z,1.83
2017-03-06T12:30:40.330Z,1.30
2017-03-06T12:31:39.042Z,1.27
2017-03-06T12:32:37.413Z,1.73
2017-03-06T12:33:35.890Z,1.93
2017-03-06T12:34:34.674Z,1.30
2017-03-06T12:35:33.081Z,1.30
2017-03-06T12:36:33.019Z,1.30
2017-03-06T12:37:31.839Z,1.30
2017-03-06T12:38:30.274Z,1.62
2017-03-06T12:39:28.650Z,1.83
2017-03-06T12:40:27.409Z,2.28
2017-03-06T12:41:25.860Z,2.22
2017-03-06T12:42:24.263Z,1.87
2017-03-06T12:43:23.367Z,1.87
2017-03-06T12:44:21.851Z,2.20
2017-03-06T12:45:20.290Z,2.43
2017-03-06T12:46:18.722Z,2.88
2017-03-06T12:47:17.142Z,1.85
2017-03-06T12:48:15.543Z,1.67
2017-03-06T12:49:14.293Z,2.00
2017-03-06T12:50:12.745Z,2.50
2017-03-06T12:51:11.620Z,2.08
2017-03-06T12:52:10.030Z,1.90
2017-03-06T12:53:08.687Z,1.80
2017-03-06T12:54:07.181Z,1.85
2017-03-06T12:55:05.950Z,1.58
2017-03-06T12:56:04.382Z,2.90
2017-03-06T12:57:02.807Z,3.07
2017-03-06T12:58:01.193Z,2.45
2017-03-06T12:58:59.579Z,2.20
2017-03-06T12:59:57.946Z,2.70
2017-03-06T13:00:56.653Z,3.27
2017-03-06T13:01:55.033Z,2.75